createdAt,value
2022-08-07T00:00:25.815Z,91.00
2022-08-07T00:02:53.537Z,91.10
2022-08-07T00:05:23.614Z,91.40
2022-08-07T00:07:59.669Z,90.90
2022-08-07T00:10:30.851Z,90.70
2022-08-07T00:13:09.542Z,91.00
2022-08-07T00:15:46.864Z,90.60
2022-08-07T00:18:23.977Z,90.30
2022-08-07T00:21:07.976Z,90.30
2022-08-07T00:23:52.311Z,90.30
2022-08-07T00:26:59.102Z,90.70
2022-08-07T00:29:06.303Z,90.70
2022-08-07T00:31:37.299Z,90.40
2022-08-07T00:34:04.724Z,90.60
2022-08-07T00:36:38.505Z,90.50
2022-08-07T00:39:10.268Z,90.40
2022-08-07T00:42:01.922Z,90.70
2022-08-07T00:44:33.989Z,90.80
2022-08-07T00:47:16.120Z,90.70
2022-08-07T00:50:21.487Z,90.80
2022-08-07T00:52:41.162Z,90.80
2022-08-07T00:55:10.434Z,90.90
2022-08-07T00:57:38.342Z,90.70
2022-08-07T01:00:23.663Z,90.90
2022-08-07T01:02:50.967Z,91.00
2022-08-07T01:05:20.520Z,90.90
2022-08-07T01:07:51.843Z,91.20
2022-08-07T01:10:19.987Z,90.90
2022-08-07T01:12:54.013Z,90.50
2022-08-07T01:15:35.765Z,90.80
2022-08-07T01:18:10.918Z,90.70
2022-08-07T01:20:57.228Z,90.40
2022-08-07T01:23:36.340Z,90.40
2022-08-07T01:26:12.153Z,90.90
2022-08-07T01:28:45.743Z,90.90
2022-08-07T01:31:15.516Z,90.80
2022-08-07T01:33:55.430Z,91.20
2022-08-07T01:36:33.334Z,91.00
2022-08-07T01:39:01.819Z,91.00
2022-08-07T01:41:39.027Z,90.90
2022-08-07T01:44:08.256Z,91.10
2022-08-07T01:46:35.420Z,91.10
2022-08-07T01:49:07.194Z,91.20
2022-08-07T01:52:03.316Z,91.00
2022-08-07T01:54:37.502Z,91.10
2022-08-07T01:57:24.300Z,91.30
2022-08-07T02:00:01.646Z,91.40
2022-08-07T02:03:18.404Z,91.50
2022-08-07T02:05:59.905Z,91.30
2022-08-07T02:08:29.859Z,91.50
2022-08-07T02:10:59.565Z,90.90
2022-08-07T02:13:57.945Z,90.80
2022-08-07T02:16:19.903Z,91.30
2022-08-07T02:18:56.408Z,91.60
2022-08-07T02:21:24.918Z,91.80
2022-08-07T02:23:53.466Z,91.50
2022-08-07T02:26:32.654Z,91.50
2022-08-07T02:29:05.248Z,91.80
2022-08-07T02:31:41.231Z,92.00
2022-08-07T02:34:11.525Z,91.80
2022-08-07T02:36:45.969Z,92.10
2022-08-07T02:39:16.985Z,92.40
2022-08-07T02:42:03.581Z,92.30
2022-08-07T02:44:42.215Z,92.00
2022-08-07T02:47:19.430Z,92.00
2022-08-07T02:50:06.374Z,92.40
2022-08-07T02:52:44.283Z,92.00
2022-08-07T02:56:03.251Z,92.00
2022-08-07T02:58:27.486Z,91.90
2022-08-07T03:00:58.373Z,91.80
2022-08-07T03:03:49.263Z,91.90
2022-08-07T03:06:26.032Z,92.00
2022-08-07T03:09:03.600Z,92.20
2022-08-07T03:11:38.839Z,92.00
2022-08-07T03:14:20.278Z,91.80
2022-08-07T03:16:50.264Z,92.10
2022-08-07T03:19:20.310Z,92.60
2022-08-07T03:21:50.586Z,92.30
2022-08-07T03:24:26.940Z,92.20
2022-08-07T03:27:01.654Z,92.20
2022-08-07T03:29:36.869Z,92.20
2022-08-07T03:32:13.130Z,91.90
2022-08-07T03:34:47.541Z,91.20
2022-08-07T03:37:37.514Z,91.00
2022-08-07T03:40:15.354Z,91.10
2022-08-07T03:42:43.958Z,91.70
2022-08-07T03:45:12.050Z,91.50
2022-08-07T03:47:58.136Z,91.30
2022-08-07T03:50:25.624Z,91.40
2022-08-07T03:52:59.638Z,91.40
2022-08-07T03:55:58.045Z,91.50
2022-08-07T03:59:04.903Z,91.00
2022-08-07T04:01:11.210Z,91.20
2022-08-07T04:03:53.722Z,91.30
2022-08-07T04:06:37.906Z,91.30
2022-08-07T04:09:15.375Z,91.60
2022-08-07T04:12:21.273Z,91.30
2022-08-07T04:14:38.954Z,91.50
2022-08-07T04:17:20.359Z,91.40
2022-08-07T04:19:52.465Z,91.40
2022-08-07T04:22:28.882Z,91.50
2022-08-07T04:25:01.061Z,91.30
2022-08-07T04:27:35.867Z,91.90
2022-08-07T04:30:35.345Z,91.80
2022-08-07T04:32:59.429Z,91.70
2022-08-07T04:35:26.935Z,91.80
2022-08-07T04:38:05.416Z,91.90
2022-08-07T04:40:52.899Z,91.00
2022-08-07T04:44:12.420Z,92.00
2022-08-07T04:46:29.622Z,91.80
2022-08-07T04:49:17.843Z,91.20
2022-08-07T04:52:18.372Z,91.30
2022-08-07T04:55:15.634Z,91.30
2022-08-07T04:58:29.708Z,91.60
2022-08-07T05:01:20.609Z,91.20
2022-08-07T05:04:08.297Z,91.40
2022-08-07T05:06:53.779Z,91.70
2022-08-07T05:09:50.753Z,91.30
2022-08-07T05:12:30.475Z,91.60
2022-08-07T05:15:23.475Z,91.60
2022-08-07T05:18:08.757Z,91.40
2022-08-07T05:20:47.114Z,91.70
2022-08-07T05:23:40.110Z,91.20
2022-08-07T05:26:23.608Z,90.70
2022-08-07T05:28:53.817Z,90.70
2022-08-07T05:31:34.636Z,90.60
2022-08-07T05:34:05.525Z,91.00
2022-08-07T05:36:52.706Z,90.50
2022-08-07T05:40:18.114Z,90.30
2022-08-07T05:42:12.620Z,90.20
2022-08-07T05:44:52.988Z,90.00
2022-08-07T05:48:02.016Z,89.40
2022-08-07T05:50:16.115Z,89.20
2022-08-07T05:52:43.156Z,89.30
2022-08-07T05:55:11.344Z,90.20
2022-08-07T05:57:42.308Z,90.30
2022-08-07T06:00:16.147Z,89.70
2022-08-07T06:02:48.953Z,89.80
2022-08-07T06:05:17.965Z,89.40
2022-08-07T06:08:09.183Z,89.20
2022-08-07T06:10:37.550Z,88.80
2022-08-07T06:13:05.699Z,89.30
2022-08-07T06:15:42.784Z,88.80
2022-08-07T06:18:14.101Z,88.50
2022-08-07T06:20:50.373Z,87.80
2022-08-07T06:24:37.199Z,89.60
2022-08-07T06:26:20.023Z,88.10
2022-08-07T06:28:53.665Z,88.10
2022-08-07T06:31:24.261Z,88.30
2022-08-07T06:34:08.512Z,88.10
2022-08-07T06:36:36.799Z,86.40
2022-08-07T06:40:16.344Z,87.70
2022-08-07T06:42:16.244Z,87.40
2022-08-07T06:44:51.242Z,87.70
2022-08-07T06:47:19.747Z,88.40
2022-08-07T06:49:51.865Z,88.70
2022-08-07T06:52:31.654Z,87.60
2022-08-07T06:55:32.990Z,88.10
2022-08-07T06:58:12.390Z,87.50
2022-08-07T07:00:42.397Z,86.10
2022-08-07T07:03:13.663Z,85.90
2022-08-07T07:06:02.625Z,86.70
2022-08-07T07:08:33.022Z,87.60
2022-08-07T07:11:13.092Z,88.10
2022-08-07T07:13:58.632Z,85.50
2022-08-07T07:16:45.095Z,86.00
2022-08-07T07:19:56.226Z,85.40
2022-08-07T07:22:36.321Z,86.50
2022-08-07T07:25:14.166Z,84.50
2022-08-07T07:28:42.143Z,83.90
2022-08-07T07:31:17.373Z,84.50
2022-08-07T07:33:56.847Z,84.40
2022-08-07T07:36:32.198Z,84.60
2022-08-07T07:39:03.252Z,86.20
2022-08-07T07:42:02.150Z,84.50
2022-08-07T07:44:26.078Z,84.70
2022-08-07T07:47:04.260Z,83.60
2022-08-07T07:50:35.670Z,83.60
2022-08-07T07:52:32.017Z,83.10
2022-08-07T07:54:59.775Z,82.60
2022-08-07T07:57:52.083Z,83.00
2022-08-07T08:00:28.849Z,83.00
2022-08-07T08:03:05.407Z,81.90
2022-08-07T08:05:50.863Z,82.60
2022-08-07T08:08:35.554Z,82.90
2022-08-07T08:11:16.110Z,82.20
2022-08-07T08:13:56.566Z,83.10
2022-08-07T08:16:39.765Z,82.20
2022-08-07T08:19:31.691Z,82.20
2022-08-07T08:22:18.213Z,82.50
2022-08-07T08:25:24.683Z,81.10
2022-08-07T08:28:03.819Z,81.20
2022-08-07T08:30:42.525Z,83.80
2022-08-07T08:33:17.028Z,81.50
2022-08-07T08:35:49.838Z,81.00
2022-08-07T08:38:30.103Z,82.50
2022-08-07T08:41:13.395Z,81.30
2022-08-07T08:44:04.519Z,79.30
2022-08-07T08:46:50.757Z,80.80
2022-08-07T08:49:33.580Z,80.80
2022-08-07T08:52:22.627Z,81.90
2022-08-07T08:55:54.394Z,79.00
2022-08-07T08:58:28.311Z,77.60
2022-08-07T09:01:15.070Z,80.80
2022-08-07T09:04:33.638Z,81.90
2022-08-07T09:07:16.147Z,81.00
2022-08-07T09:10:27.455Z,79.00
2022-08-07T09:13:39.563Z,82.00
2022-08-07T09:16:36.829Z,81.60
2022-08-07T09:20:26.734Z,81.50
2022-08-07T09:24:33.734Z,80.10
2022-08-07T09:26:27.930Z,79.00
2022-08-07T09:30:02.402Z,80.90
2022-08-07T09:32:21.782Z,79.70
2022-08-07T09:36:05.246Z,77.40
2022-08-07T09:38:30.323Z,79.00
2022-08-07T09:41:17.691Z,80.20
2022-08-07T09:44:32.853Z,82.30
2022-08-07T09:47:59.132Z,82.30
2022-08-07T09:50:36.616Z,79.90
2022-08-07T09:53:12.521Z,80.60
2022-08-07T09:56:14.319Z,81.30
2022-08-07T09:59:22.039Z,78.30
2022-08-07T10:02:31.584Z,81.00
2022-08-07T10:05:17.495Z,79.50
2022-08-07T10:08:19.337Z,80.80
2022-08-07T10:12:03.127Z,78.00
2022-08-07T10:14:54.187Z,77.30
2022-08-07T10:18:11.868Z,78.10
2022-08-07T10:22:14.698Z,81.00
2022-08-07T10:24:57.310Z,80.40
2022-08-07T10:27:47.080Z,79.40
2022-08-07T10:30:36.605Z,75.50
2022-08-07T10:34:05.973Z,74.70
2022-08-07T10:36:41.495Z,75.40
2022-08-07T10:40:02.612Z,77.90
2022-08-07T10:43:04.129Z,78.40
2022-08-07T10:45:44.943Z,79.40
2022-08-07T10:48:44.306Z,78.10
2022-08-07T10:51:39.599Z,75.10
2022-08-07T10:54:38.015Z,76.30
2022-08-07T10:57:34.526Z,75.00
2022-08-07T11:00:36.357Z,76.00
2022-08-07T11:03:12.698Z,73.90
2022-08-07T11:06:10.619Z,76.60
2022-08-07T11:09:04.610Z,77.20
2022-08-07T11:12:07.036Z,79.10
2022-08-07T11:14:59.874Z,72.60
2022-08-07T11:17:43.512Z,74.60
2022-08-07T11:20:52.759Z,71.30
2022-08-07T11:23:36.553Z,70.40
2022-08-07T11:26:31.582Z,68.00
2022-08-07T11:29:13.184Z,71.20
2022-08-07T11:32:12.266Z,68.30
2022-08-07T11:34:50.079Z,65.50
2022-08-07T11:37:58.516Z,65.90
2022-08-07T11:40:49.640Z,68.60
2022-08-07T11:43:54.648Z,65.20
2022-08-07T11:46:57.940Z,65.20
2022-08-07T11:50:31.734Z,66.30
2022-08-07T11:54:01.723Z,66.80
2022-08-07T11:57:21.824Z,67.70
2022-08-07T12:00:19.773Z,69.10
2022-08-07T12:03:45.165Z,69.70
2022-08-07T12:06:51.727Z,68.60
2022-08-07T12:09:55.354Z,67.20
2022-08-07T12:12:44.627Z,69.90
2022-08-07T12:15:46.530Z,71.50
2022-08-07T12:19:14.683Z,71.70
2022-08-07T12:22:39.103Z,72.60
2022-08-07T12:26:03.160Z,72.50
2022-08-07T12:28:18.079Z,70.50
2022-08-07T12:31:09.371Z,72.10
2022-08-07T12:34:01.043Z,69.10
2022-08-07T12:36:33.579Z,69.10
2022-08-07T12:39:41.074Z,70.30
2022-08-07T12:41:56.167Z,71.60
2022-08-07T12:44:27.947Z,70.70
2022-08-07T12:47:49.326Z,73.00
2022-08-07T12:50:34.333Z,71.40
2022-08-07T12:54:23.943Z,72.30
2022-08-07T12:56:36.706Z,73.70
2022-08-07T12:59:08.439Z,70.40
2022-08-07T13:02:12.359Z,69.70
2022-08-07T13:05:14.758Z,70.00
2022-08-07T13:08:39.742Z,70.50
2022-08-07T13:12:02.443Z,72.90
2022-08-07T13:15:00.087Z,70.20
2022-08-07T13:17:59.407Z,72.60
2022-08-07T13:20:44.576Z,71.30
2022-08-07T13:24:01.625Z,70.60
2022-08-07T13:26:54.355Z,68.90
2022-08-07T13:29:48.124Z,73.80
2022-08-07T13:33:06.626Z,71.10
2022-08-07T13:36:05.425Z,73.00
2022-08-07T13:38:50.138Z,70.00
2022-08-07T13:41:47.435Z,70.00
2022-08-07T13:44:26.009Z,72.10
2022-08-07T13:46:59.689Z,71.70
2022-08-07T13:50:32.911Z,68.50
2022-08-07T13:52:32.063Z,69.20
2022-08-07T13:55:19.099Z,71.00
2022-08-07T13:57:59.094Z,71.90
2022-08-07T14:00:39.740Z,71.00
2022-08-07T14:03:28.903Z,74.30
2022-08-07T14:05:58.601Z,74.10
2022-08-07T14:08:27.439Z,70.60
2022-08-07T14:11:02.027Z,71.80
2022-08-07T14:13:55.198Z,68.30
2022-08-07T14:16:31.456Z,69.00
2022-08-07T14:19:02.635Z,68.00
2022-08-07T14:22:03.410Z,68.50
2022-08-07T14:24:33.314Z,67.90
2022-08-07T14:28:09.897Z,67.50
2022-08-07T14:30:07.745Z,66.90
2022-08-07T14:32:48.252Z,68.90
2022-08-07T14:35:43.322Z,64.00
2022-08-07T14:38:26.195Z,66.50
2022-08-07T14:41:12.352Z,64.80
2022-08-07T14:43:58.778Z,67.20
2022-08-07T14:46:34.543Z,69.00
2022-08-07T14:49:56.481Z,67.50
2022-08-07T14:52:04.889Z,67.40
2022-08-07T14:54:41.895Z,68.00
2022-08-07T14:57:19.594Z,69.40
2022-08-07T15:05:54.402Z,64.60
2022-08-07T15:08:50.138Z,66.50
2022-08-07T15:11:50.905Z,60.70
2022-08-07T15:14:20.488Z,61.80
2022-08-07T15:17:00.601Z,61.20
2022-08-07T15:20:31.900Z,58.00
2022-08-07T15:22:29.495Z,56.40
2022-08-07T15:25:17.409Z,56.30
2022-08-07T15:28:33.125Z,58.80
2022-08-07T15:33:33.953Z,58.00
2022-08-07T15:36:07.538Z,57.50
2022-08-07T15:38:59.335Z,56.50
2022-08-07T15:42:43.573Z,57.20
2022-08-07T15:44:21.042Z,57.00
2022-08-07T15:47:03.571Z,55.60
2022-08-07T15:50:03.687Z,57.10
2022-08-07T15:52:30.730Z,55.00
2022-08-07T15:55:03.596Z,56.10
2022-08-07T15:57:47.549Z,55.90
2022-08-07T16:00:31.503Z,56.70
2022-08-07T16:03:20.451Z,56.10
2022-08-07T16:05:51.847Z,55.10
2022-08-07T16:08:31.589Z,53.90
2022-08-07T16:11:26.606Z,54.70
2022-08-07T16:14:17.153Z,52.80
2022-08-07T16:18:01.698Z,50.70
2022-08-07T16:20:55.274Z,50.40
2022-08-07T16:24:34.316Z,52.60
2022-08-07T16:27:18.169Z,50.30
2022-08-07T16:30:11.619Z,53.30
2022-08-07T16:32:54.997Z,54.10
2022-08-07T16:35:59.445Z,53.20
2022-08-07T16:39:00.055Z,55.60
2022-08-07T16:41:41.048Z,54.10
2022-08-07T16:44:47.339Z,54.30
2022-08-07T16:47:56.959Z,55.00
2022-08-07T16:51:20.601Z,56.20
2022-08-07T16:54:33.136Z,54.00
2022-08-07T16:58:01.647Z,55.30
2022-08-07T17:00:29.576Z,55.20
2022-08-07T17:03:05.824Z,55.60
2022-08-07T17:06:19.004Z,57.60
2022-08-07T17:09:09.233Z,58.10
2022-08-07T17:12:04.184Z,59.10
2022-08-07T17:15:11.953Z,59.50
2022-08-07T17:17:51.990Z,60.80
2022-08-07T17:20:37.619Z,59.80
2022-08-07T17:23:22.993Z,60.00
2022-08-07T17:26:22.547Z,59.90
2022-08-07T17:30:15.972Z,60.90
2022-08-07T17:34:09.216Z,61.30
2022-08-07T17:36:20.130Z,61.40
2022-08-07T17:39:21.802Z,62.20
2022-08-07T17:42:04.863Z,62.90
2022-08-07T17:44:52.026Z,62.60
2022-08-07T17:47:43.450Z,64.00
2022-08-07T17:50:47.016Z,63.70
2022-08-07T17:53:59.566Z,64.80
2022-08-07T17:56:29.984Z,65.00
2022-08-07T17:58:57.325Z,64.00
2022-08-07T18:01:57.884Z,64.80
2022-08-07T18:04:43.194Z,65.20
2022-08-07T18:07:28.674Z,66.20
2022-08-07T18:10:33.145Z,65.90
2022-08-07T18:13:23.130Z,65.30
2022-08-07T18:16:32.829Z,67.00
2022-08-07T18:21:08.707Z,68.30
2022-08-07T18:22:16.317Z,67.10
2022-08-07T18:24:53.244Z,67.70
2022-08-07T18:28:00.289Z,68.50
2022-08-07T18:30:44.812Z,68.40
2022-08-07T18:34:39.320Z,67.70
2022-08-07T18:38:58.329Z,67.90
2022-08-07T18:41:09.227Z,68.70
2022-08-07T18:44:00.410Z,68.70
2022-08-07T18:47:22.406Z,68.10
2022-08-07T18:50:39.315Z,67.90
2022-08-07T18:54:06.244Z,68.10
2022-08-07T18:57:30.384Z,69.00
2022-08-07T19:00:32.827Z,69.40
2022-08-07T19:03:38.750Z,70.00
2022-08-07T19:06:16.929Z,70.10
2022-08-07T19:09:09.418Z,70.40
2022-08-07T19:12:19.236Z,70.90
2022-08-07T19:16:02.389Z,71.90
2022-08-07T19:18:16.073Z,72.20
2022-08-07T19:21:09.034Z,72.60
2022-08-07T19:23:58.611Z,72.20
2022-08-07T19:27:09.329Z,72.60
2022-08-07T19:31:01.611Z,73.00
2022-08-07T19:32:39.488Z,72.20
2022-08-07T19:35:13.511Z,71.90
2022-08-07T19:37:56.622Z,72.40
2022-08-07T19:40:30.830Z,72.40
2022-08-07T19:42:59.084Z,72.60
2022-08-07T19:46:06.248Z,72.90
2022-08-07T19:48:23.909Z,73.30
2022-08-07T19:50:53.393Z,73.50
2022-08-07T19:54:34.718Z,73.30
2022-08-07T19:57:50.854Z,74.00
2022-08-07T19:58:59.439Z,74.10
2022-08-07T20:01:56.128Z,73.60
2022-08-07T20:04:31.595Z,74.00
2022-08-07T20:07:10.121Z,73.50
2022-08-07T20:10:37.958Z,74.40
2022-08-07T20:12:38.163Z,74.40
2022-08-07T20:15:18.721Z,74.70
2022-08-07T20:18:01.353Z,74.90
2022-08-07T20:20:32.017Z,75.50
2022-08-07T20:23:11.050Z,75.50
2022-08-07T20:25:56.536Z,75.30
2022-08-07T20:28:30.767Z,76.40
2022-08-07T20:31:00.260Z,75.90
2022-08-07T20:33:37.938Z,76.40
2022-08-07T20:36:08.685Z,76.80
2022-08-07T20:38:53.727Z,76.40
2022-08-07T20:41:33.854Z,76.50
2022-08-07T20:44:03.137Z,76.90
2022-08-07T20:46:44.201Z,76.90
2022-08-07T20:50:00.877Z,76.90
2022-08-07T20:52:13.842Z,76.90
2022-08-07T20:54:53.280Z,76.80
2022-08-07T20:57:47.338Z,78.00
2022-08-07T21:00:17.767Z,77.90
2022-08-07T21:02:58.967Z,77.90
2022-08-07T21:05:54.464Z,78.80
2022-08-07T21:08:37.549Z,78.80
2022-08-07T21:11:18.063Z,79.00
2022-08-07T21:14:16.195Z,78.80
2022-08-07T21:16:56.753Z,79.10
2022-08-07T21:20:01.048Z,79.80
2022-08-07T21:22:28.387Z,79.70
2022-08-07T21:25:12.247Z,80.60
2022-08-07T21:28:01.694Z,79.90
2022-08-07T21:31:08.527Z,80.00
2022-08-07T21:34:07.877Z,80.50
2022-08-07T21:36:59.838Z,80.70
2022-08-07T21:39:51.799Z,81.40
2022-08-07T21:42:48.143Z,81.00
2022-08-07T21:46:08.017Z,81.50
2022-08-07T21:48:55.966Z,81.70
2022-08-07T21:52:09.039Z,81.20
2022-08-07T21:54:53.420Z,81.50
2022-08-07T21:58:03.207Z,82.30
2022-08-07T22:00:32.540Z,81.60
2022-08-07T22:03:09.966Z,81.50
2022-08-07T22:05:51.676Z,81.60
2022-08-07T22:08:28.905Z,82.30
2022-08-07T22:11:03.823Z,82.30
2022-08-07T22:13:50.345Z,82.30
2022-08-07T22:16:38.834Z,83.00
2022-08-07T22:19:30.473Z,83.10
2022-08-07T22:22:21.570Z,83.70
2022-08-07T22:25:08.326Z,83.80
2022-08-07T22:28:29.475Z,85.80
2022-08-07T22:31:05.178Z,83.00
2022-08-07T22:33:56.761Z,85.20
2022-08-07T22:36:48.726Z,84.50
2022-08-07T22:39:53.058Z,85.60
2022-08-07T22:42:29.519Z,85.50
2022-08-07T22:45:02.385Z,86.10
2022-08-07T22:47:52.106Z,86.60
2022-08-07T22:50:37.754Z,86.10
2022-08-07T22:54:07.829Z,86.50
2022-08-07T22:56:32.906Z,86.10
2022-08-07T22:59:46.196Z,86.60
2022-08-07T23:02:22.712Z,86.60
2022-08-07T23:06:07.327Z,86.90
2022-08-07T23:10:05.914Z,87.70
2022-08-07T23:12:34.145Z,87.90
2022-08-07T23:16:05.909Z,87.70
2022-08-07T23:19:06.319Z,88.00
2022-08-07T23:21:51.823Z,88.40
2022-08-07T23:24:45.787Z,88.20
2022-08-07T23:28:22.142Z,88.50
2022-08-07T23:31:06.983Z,89.20
2022-08-07T23:34:36.720Z,89.70
2022-08-07T23:37:20.166Z,89.30
2022-08-07T23:40:41.203Z,89.10
2022-08-07T23:43:44.057Z,89.00
2022-08-07T23:46:44.029Z,89.10
2022-08-07T23:50:18.645Z,89.30
2022-08-07T23:52:58.788Z,89.30
2022-08-07T23:55:53.267Z,89.90
2022-08-07T23:58:49.056Z,90.10
